sensor_id;sensor_type;location;lat;lon;timestamp;temperature;humidity
9847;DHT22;4962;50.084;8.794;2023-01-30T00:01:23;6.90;99.90
9847;DHT22;4962;50.084;8.794;2023-01-30T00:03:50;6.90;99.90
9847;DHT22;4962;50.084;8.794;2023-01-30T00:06:19;6.90;99.90
9847;DHT22;4962;50.084;8.794;2023-01-30T00:08:46;6.90;99.90
9847;DHT22;4962;50.084;8.794;2023-01-30T00:11:15;6.90;99.90
9847;DHT22;4962;50.084;8.794;2023-01-30T00:13:42;6.90;99.90
9847;DHT22;4962;50.084;8.794;2023-01-30T00:16:10;6.90;99.90
9847;DHT22;4962;50.084;8.794;2023-01-30T00:18:38;6.90;99.90
9847;DHT22;4962;50.084;8.794;2023-01-30T00:21:07;6.90;99.90
9847;DHT22;4962;50.084;8.794;2023-01-30T00:23:36;6.90;99.90
9847;DHT22;4962;50.084;8.794;2023-01-30T00:26:04;6.90;99.90
9847;DHT22;4962;50.084;8.794;2023-01-30T00:28:31;6.90;99.90
9847;DHT22;4962;50.084;8.794;2023-01-30T00:30:58;6.90;99.90
9847;DHT22;4962;50.084;8.794;2023-01-30T00:33:26;6.90;99.90
9847;DHT22;4962;50.084;8.794;2023-01-30T00:35:55;6.90;99.90
9847;DHT22;4962;50.084;8.794;2023-01-30T00:38:23;6.90;99.90
9847;DHT22;4962;50.084;8.794;2023-01-30T00:40:51;6.90;99.90
9847;DHT22;4962;50.084;8.794;2023-01-30T00:43:19;6.90;99.90
9847;DHT22;4962;50.084;8.794;2023-01-30T00:46:08;6.90;99.90
9847;DHT22;4962;50.084;8.794;2023-01-30T00:49:05;6.90;99.90
9847;DHT22;4962;50.084;8.794;2023-01-30T00:51:32;6.90;99.90
9847;DHT22;4962;50.084;8.794;2023-01-30T00:53:59;6.90;99.90
9847;DHT22;4962;50.084;8.794;2023-01-30T00:56:27;6.90;99.90
9847;DHT22;4962;50.084;8.794;2023-01-30T00:58:54;6.90;99.90
9847;DHT22;4962;50.084;8.794;2023-01-30T01:01:21;6.90;99.90
9847;DHT22;4962;50.084;8.794;2023-01-30T01:03:48;6.90;99.90
9847;DHT22;4962;50.084;8.794;2023-01-30T01:06:14;7.00;99.90
9847;DHT22;4962;50.084;8.794;2023-01-30T01:08:41;7.00;99.90
9847;DHT22;4962;50.084;8.794;2023-01-30T01:11:08;7.00;99.90
9847;DHT22;4962;50.084;8.794;2023-01-30T01:13:36;7.00;99.90
9847;DHT22;4962;50.084;8.794;2023-01-30T01:16:04;7.10;99.90
9847;DHT22;4962;50.084;8.794;2023-01-30T01:18:31;7.10;99.90
9847;DHT22;4962;50.084;8.794;2023-01-30T01:20:58;7.20;99.90
9847;DHT22;4962;50.084;8.794;2023-01-30T01:23:24;7.20;99.90
9847;DHT22;4962;50.084;8.794;2023-01-30T01:25:51;7.20;99.90
9847;DHT22;4962;50.084;8.794;2023-01-30T01:28:18;7.20;99.90
9847;DHT22;4962;50.084;8.794;2023-01-30T01:30:48;7.20;99.90
9847;DHT22;4962;50.084;8.794;2023-01-30T01:33:15;7.20;99.90
9847;DHT22;4962;50.084;8.794;2023-01-30T01:35:41;7.20;99.90
9847;DHT22;4962;50.084;8.794;2023-01-30T01:38:08;7.20;99.90
9847;DHT22;4962;50.084;8.794;2023-01-30T01:40:35;7.20;99.90
9847;DHT22;4962;50.084;8.794;2023-01-30T01:43:21;7.10;99.90
9847;DHT22;4962;50.084;8.794;2023-01-30T01:45:54;7.20;99.90
9847;DHT22;4962;50.084;8.794;2023-01-30T01:48:27;7.20;99.90
9847;DHT22;4962;50.084;8.794;2023-01-30T01:50:57;7.20;99.90
9847;DHT22;4962;50.084;8.794;2023-01-30T01:53:27;7.20;99.90
9847;DHT22;4962;50.084;8.794;2023-01-30T01:55:57;7.20;99.90
9847;DHT22;4962;50.084;8.794;2023-01-30T01:58:26;7.20;99.90
9847;DHT22;4962;50.084;8.794;2023-01-30T02:00:58;7.20;99.90
9847;DHT22;4962;50.084;8.794;2023-01-30T02:03:28;7.20;99.90
9847;DHT22;4962;50.084;8.794;2023-01-30T02:05:58;7.20;99.90
9847;DHT22;4962;50.084;8.794;2023-01-30T02:08:28;7.20;99.90
9847;DHT22;4962;50.084;8.794;2023-01-30T02:10:59;7.20;99.90
9847;DHT22;4962;50.084;8.794;2023-01-30T02:13:28;7.20;99.90
9847;DHT22;4962;50.084;8.794;2023-01-30T02:16:00;7.20;99.90
9847;DHT22;4962;50.084;8.794;2023-01-30T02:18:27;7.30;99.90
9847;DHT22;4962;50.084;8.794;2023-01-30T02:21:23;7.30;99.90
9847;DHT22;4962;50.084;8.794;2023-01-30T02:27:15;7.30;99.90
9847;DHT22;4962;50.084;8.794;2023-01-30T02:30:14;7.40;99.90
9847;DHT22;4962;50.084;8.794;2023-01-30T02:32:56;7.40;99.90
9847;DHT22;4962;50.084;8.794;2023-01-30T02:35:30;7.40;99.90
9847;DHT22;4962;50.084;8.794;2023-01-30T02:38:11;7.40;99.90
9847;DHT22;4962;50.084;8.794;2023-01-30T02:40:50;7.40;99.90
9847;DHT22;4962;50.084;8.794;2023-01-30T02:43:23;7.50;99.90
9847;DHT22;4962;50.084;8.794;2023-01-30T02:45:56;7.50;99.90
9847;DHT22;4962;50.084;8.794;2023-01-30T02:48:33;7.50;99.90
9847;DHT22;4962;50.084;8.794;2023-01-30T02:51:04;7.40;99.90
9847;DHT22;4962;50.084;8.794;2023-01-30T02:53:33;7.40;99.90
9847;DHT22;4962;50.084;8.794;2023-01-30T02:56:02;7.40;99.90
9847;DHT22;4962;50.084;8.794;2023-01-30T02:58:32;7.40;99.90
9847;DHT22;4962;50.084;8.794;2023-01-30T03:04:30;7.40;99.90
9847;DHT22;4962;50.084;8.794;2023-01-30T03:07:09;7.50;99.90
9847;DHT22;4962;50.084;8.794;2023-01-30T03:09:46;7.50;99.90
9847;DHT22;4962;50.084;8.794;2023-01-30T03:12:18;7.50;99.90
9847;DHT22;4962;50.084;8.794;2023-01-30T03:14:53;7.50;99.90
9847;DHT22;4962;50.084;8.794;2023-01-30T03:17:22;7.60;99.90
9847;DHT22;4962;50.084;8.794;2023-01-30T03:19:54;7.60;99.90
9847;DHT22;4962;50.084;8.794;2023-01-30T03:22:21;7.60;99.90
9847;DHT22;4962;50.084;8.794;2023-01-30T03:24:49;7.60;99.90
9847;DHT22;4962;50.084;8.794;2023-01-30T03:27:18;7.50;99.90
9847;DHT22;4962;50.084;8.794;2023-01-30T03:29:45;7.50;99.90
9847;DHT22;4962;50.084;8.794;2023-01-30T03:32:11;7.50;99.90
9847;DHT22;4962;50.084;8.794;2023-01-30T03:34:38;7.50;99.90
9847;DHT22;4962;50.084;8.794;2023-01-30T03:37:07;7.50;99.90
9847;DHT22;4962;50.084;8.794;2023-01-30T03:39:34;7.50;99.90
9847;DHT22;4962;50.084;8.794;2023-01-30T03:42:01;7.60;99.90
9847;DHT22;4962;50.084;8.794;2023-01-30T03:44:28;7.50;99.90
9847;DHT22;4962;50.084;8.794;2023-01-30T03:46:55;7.50;99.90
9847;DHT22;4962;50.084;8.794;2023-01-30T03:49:22;7.50;99.90
9847;DHT22;4962;50.084;8.794;2023-01-30T03:51:58;7.50;99.90
9847;DHT22;4962;50.084;8.794;2023-01-30T03:54:27;7.50;99.90
9847;DHT22;4962;50.084;8.794;2023-01-30T03:56:54;7.50;99.90
9847;DHT22;4962;50.084;8.794;2023-01-30T03:59:21;7.60;99.90
9847;DHT22;4962;50.084;8.794;2023-01-30T04:01:47;7.60;99.90
9847;DHT22;4962;50.084;8.794;2023-01-30T04:04:14;7.60;99.90
9847;DHT22;4962;50.084;8.794;2023-01-30T04:06:41;7.60;99.90
9847;DHT22;4962;50.084;8.794;2023-01-30T04:09:08;7.60;99.90
9847;DHT22;4962;50.084;8.794;2023-01-30T04:11:37;7.60;99.90
9847;DHT22;4962;50.084;8.794;2023-01-30T04:14:04;7.60;99.90
9847;DHT22;4962;50.084;8.794;2023-01-30T04:16:32;7.60;99.90
9847;DHT22;4962;50.084;8.794;2023-01-30T04:18:59;7.60;99.90
9847;DHT22;4962;50.084;8.794;2023-01-30T04:21:26;7.60;99.90
9847;DHT22;4962;50.084;8.794;2023-01-30T04:23:52;7.60;99.90
9847;DHT22;4962;50.084;8.794;2023-01-30T04:26:19;7.60;99.90
9847;DHT22;4962;50.084;8.794;2023-01-30T04:28:50;7.60;99.90
9847;DHT22;4962;50.084;8.794;2023-01-30T04:31:17;7.60;99.90
9847;DHT22;4962;50.084;8.794;2023-01-30T04:33:44;7.60;99.90
9847;DHT22;4962;50.084;8.794;2023-01-30T04:36:11;7.60;99.90
9847;DHT22;4962;50.084;8.794;2023-01-30T04:38:38;7.70;99.90
9847;DHT22;4962;50.084;8.794;2023-01-30T04:41:05;7.60;99.90
9847;DHT22;4962;50.084;8.794;2023-01-30T04:43:32;7.70;99.90
9847;DHT22;4962;50.084;8.794;2023-01-30T04:46:00;7.70;99.90
9847;DHT22;4962;50.084;8.794;2023-01-30T04:48:27;7.70;99.90
9847;DHT22;4962;50.084;8.794;2023-01-30T04:50:54;7.70;99.90
9847;DHT22;4962;50.084;8.794;2023-01-30T04:53:22;7.70;99.90
9847;DHT22;4962;50.084;8.794;2023-01-30T04:55:49;7.70;99.90
9847;DHT22;4962;50.084;8.794;2023-01-30T04:58:17;7.70;99.90
9847;DHT22;4962;50.084;8.794;2023-01-30T05:00:45;7.70;99.90
9847;DHT22;4962;50.084;8.794;2023-01-30T05:03:13;7.70;99.90
9847;DHT22;4962;50.084;8.794;2023-01-30T05:05:41;7.70;99.90
9847;DHT22;4962;50.084;8.794;2023-01-30T05:08:08;7.70;99.90
9847;DHT22;4962;50.084;8.794;2023-01-30T05:10:35;7.70;99.90
9847;DHT22;4962;50.084;8.794;2023-01-30T05:13:03;7.70;99.90
9847;DHT22;4962;50.084;8.794;2023-01-30T05:15:30;7.70;99.90
9847;DHT22;4962;50.084;8.794;2023-01-30T05:17:56;7.70;99.90
9847;DHT22;4962;50.084;8.794;2023-01-30T05:20:26;7.70;99.90
9847;DHT22;4962;50.084;8.794;2023-01-30T05:22:53;7.80;99.90
9847;DHT22;4962;50.084;8.794;2023-01-30T05:25:19;7.80;99.90
9847;DHT22;4962;50.084;8.794;2023-01-30T05:27:49;7.80;99.90
9847;DHT22;4962;50.084;8.794;2023-01-30T05:30:16;7.80;99.90
9847;DHT22;4962;50.084;8.794;2023-01-30T05:32:43;7.80;99.90
9847;DHT22;4962;50.084;8.794;2023-01-30T05:35:10;7.90;99.90
9847;DHT22;4962;50.084;8.794;2023-01-30T05:37:38;7.90;99.90
9847;DHT22;4962;50.084;8.794;2023-01-30T05:40:06;7.90;99.90
9847;DHT22;4962;50.084;8.794;2023-01-30T05:42:33;7.90;99.90
9847;DHT22;4962;50.084;8.794;2023-01-30T05:45:00;7.90;99.90
9847;DHT22;4962;50.084;8.794;2023-01-30T05:47:27;8.00;99.90
9847;DHT22;4962;50.084;8.794;2023-01-30T05:49:54;7.90;99.90
9847;DHT22;4962;50.084;8.794;2023-01-30T05:52:21;7.90;99.90
9847;DHT22;4962;50.084;8.794;2023-01-30T05:54:49;7.90;99.90
9847;DHT22;4962;50.084;8.794;2023-01-30T05:57:16;8.00;99.90
9847;DHT22;4962;50.084;8.794;2023-01-30T05:59:43;8.00;99.90
9847;DHT22;4962;50.084;8.794;2023-01-30T06:02:10;8.00;99.90
9847;DHT22;4962;50.084;8.794;2023-01-30T06:04:37;8.00;99.90
9847;DHT22;4962;50.084;8.794;2023-01-30T06:07:03;8.10;99.90
9847;DHT22;4962;50.084;8.794;2023-01-30T06:09:30;8.10;99.90
9847;DHT22;4962;50.084;8.794;2023-01-30T06:11:59;8.10;99.90
9847;DHT22;4962;50.084;8.794;2023-01-30T06:14:26;8.10;99.90
9847;DHT22;4962;50.084;8.794;2023-01-30T06:16:52;8.20;99.90
9847;DHT22;4962;50.084;8.794;2023-01-30T06:19:19;8.30;99.90
9847;DHT22;4962;50.084;8.794;2023-01-30T06:21:46;8.30;99.90
9847;DHT22;4962;50.084;8.794;2023-01-30T06:24:13;8.40;99.90
9847;DHT22;4962;50.084;8.794;2023-01-30T06:26:40;8.40;99.90
9847;DHT22;4962;50.084;8.794;2023-01-30T06:29:08;8.50;99.90
9847;DHT22;4962;50.084;8.794;2023-01-30T06:31:35;8.60;99.90
9847;DHT22;4962;50.084;8.794;2023-01-30T06:34:02;8.60;99.90
9847;DHT22;4962;50.084;8.794;2023-01-30T06:36:30;8.60;99.90
9847;DHT22;4962;50.084;8.794;2023-01-30T06:38:57;8.60;99.90
9847;DHT22;4962;50.084;8.794;2023-01-30T06:41:24;8.60;99.90
9847;DHT22;4962;50.084;8.794;2023-01-30T06:43:51;8.60;99.90
9847;DHT22;4962;50.084;8.794;2023-01-30T06:46:20;8.60;99.90
9847;DHT22;4962;50.084;8.794;2023-01-30T06:48:46;8.70;99.90
9847;DHT22;4962;50.084;8.794;2023-01-30T06:51:16;8.70;99.90
9847;DHT22;4962;50.084;8.794;2023-01-30T06:53:43;8.70;99.90
9847;DHT22;4962;50.084;8.794;2023-01-30T06:56:13;8.70;99.90
9847;DHT22;4962;50.084;8.794;2023-01-30T06:58:40;8.70;99.90
9847;DHT22;4962;50.084;8.794;2023-01-30T07:01:07;8.70;99.90
9847;DHT22;4962;50.084;8.794;2023-01-30T07:03:36;8.80;99.90
9847;DHT22;4962;50.084;8.794;2023-01-30T07:06:09;8.80;99.90
9847;DHT22;4962;50.084;8.794;2023-01-30T07:08:36;8.80;99.90
9847;DHT22;4962;50.084;8.794;2023-01-30T07:11:08;8.80;99.90
9847;DHT22;4962;50.084;8.794;2023-01-30T07:13:35;8.90;99.90
9847;DHT22;4962;50.084;8.794;2023-01-30T07:16:22;8.80;99.90
9847;DHT22;4962;50.084;8.794;2023-01-30T07:18:55;8.90;99.90
9847;DHT22;4962;50.084;8.794;2023-01-30T07:21:23;8.90;99.90
9847;DHT22;4962;50.084;8.794;2023-01-30T07:23:51;8.90;99.90
9847;DHT22;4962;50.084;8.794;2023-01-30T07:26:44;8.90;99.90
9847;DHT22;4962;50.084;8.794;2023-01-30T07:29:12;8.90;99.90
9847;DHT22;4962;50.084;8.794;2023-01-30T07:31:39;8.90;99.90
9847;DHT22;4962;50.084;8.794;2023-01-30T07:34:08;8.90;99.90
9847;DHT22;4962;50.084;8.794;2023-01-30T07:36:35;8.90;99.90
9847;DHT22;4962;50.084;8.794;2023-01-30T07:39:03;8.90;99.90
9847;DHT22;4962;50.084;8.794;2023-01-30T07:41:30;8.90;99.90
9847;DHT22;4962;50.084;8.794;2023-01-30T07:43:57;8.90;99.90
9847;DHT22;4962;50.084;8.794;2023-01-30T07:46:24;8.90;99.90
9847;DHT22;4962;50.084;8.794;2023-01-30T07:48:51;8.90;99.90
9847;DHT22;4962;50.084;8.794;2023-01-30T07:51:20;9.00;99.90
9847;DHT22;4962;50.084;8.794;2023-01-30T07:53:48;8.90;99.90
9847;DHT22;4962;50.084;8.794;2023-01-30T07:56:16;8.90;99.90
9847;DHT22;4962;50.084;8.794;2023-01-30T07:58:44;9.00;99.90
9847;DHT22;4962;50.084;8.794;2023-01-30T08:01:20;9.00;99.90
9847;DHT22;4962;50.084;8.794;2023-01-30T08:03:48;9.00;99.90
9847;DHT22;4962;50.084;8.794;2023-01-30T08:06:15;9.10;99.90
9847;DHT22;4962;50.084;8.794;2023-01-30T08:08:44;9.10;99.90
9847;DHT22;4962;50.084;8.794;2023-01-30T08:11:12;9.10;99.90
9847;DHT22;4962;50.084;8.794;2023-01-30T08:13:39;9.10;99.90
9847;DHT22;4962;50.084;8.794;2023-01-30T08:16:06;9.20;99.90
9847;DHT22;4962;50.084;8.794;2023-01-30T08:18:34;9.20;99.90
9847;DHT22;4962;50.084;8.794;2023-01-30T08:21:02;9.20;99.90
9847;DHT22;4962;50.084;8.794;2023-01-30T08:23:30;9.20;99.90
9847;DHT22;4962;50.084;8.794;2023-01-30T08:26:00;9.30;99.90
9847;DHT22;4962;50.084;8.794;2023-01-30T08:28:28;9.30;99.90
9847;DHT22;4962;50.084;8.794;2023-01-30T08:30:55;9.40;99.90
9847;DHT22;4962;50.084;8.794;2023-01-30T08:33:23;9.40;99.90
9847;DHT22;4962;50.084;8.794;2023-01-30T08:35:50;9.40;99.90
9847;DHT22;4962;50.084;8.794;2023-01-30T08:38:17;9.50;99.90
9847;DHT22;4962;50.084;8.794;2023-01-30T08:40:46;9.50;99.90
9847;DHT22;4962;50.084;8.794;2023-01-30T08:43:14;9.60;99.90
9847;DHT22;4962;50.084;8.794;2023-01-30T08:45:41;9.60;99.90
9847;DHT22;4962;50.084;8.794;2023-01-30T08:48:08;9.60;99.90
9847;DHT22;4962;50.084;8.794;2023-01-30T08:50:35;9.60;99.90
9847;DHT22;4962;50.084;8.794;2023-01-30T08:53:03;9.60;99.90
9847;DHT22;4962;50.084;8.794;2023-01-30T08:55:31;9.60;99.90
9847;DHT22;4962;50.084;8.794;2023-01-30T08:58:00;9.60;99.90
9847;DHT22;4962;50.084;8.794;2023-01-30T09:00:29;9.70;99.90
9847;DHT22;4962;50.084;8.794;2023-01-30T09:02:56;9.70;99.90
9847;DHT22;4962;50.084;8.794;2023-01-30T09:05:27;9.70;99.90
9847;DHT22;4962;50.084;8.794;2023-01-30T09:07:54;9.60;99.90
9847;DHT22;4962;50.084;8.794;2023-01-30T09:10:21;9.70;99.90
9847;DHT22;4962;50.084;8.794;2023-01-30T09:12:49;9.70;99.90
9847;DHT22;4962;50.084;8.794;2023-01-30T09:15:15;9.60;99.90
9847;DHT22;4962;50.084;8.794;2023-01-30T09:17:44;9.60;99.90
9847;DHT22;4962;50.084;8.794;2023-01-30T09:20:11;9.70;99.90
9847;DHT22;4962;50.084;8.794;2023-01-30T09:22:51;9.70;99.90
9847;DHT22;4962;50.084;8.794;2023-01-30T09:25:18;9.70;99.90
9847;DHT22;4962;50.084;8.794;2023-01-30T09:27:47;9.80;99.90
9847;DHT22;4962;50.084;8.794;2023-01-30T09:30:15;9.70;99.90
9847;DHT22;4962;50.084;8.794;2023-01-30T09:32:46;9.70;99.90
9847;DHT22;4962;50.084;8.794;2023-01-30T09:35:13;9.70;99.90
9847;DHT22;4962;50.084;8.794;2023-01-30T09:37:46;9.80;99.90
9847;DHT22;4962;50.084;8.794;2023-01-30T09:40:14;9.80;99.90
9847;DHT22;4962;50.084;8.794;2023-01-30T09:43:06;9.80;99.90
9847;DHT22;4962;50.084;8.794;2023-01-30T09:45:46;9.80;99.90
9847;DHT22;4962;50.084;8.794;2023-01-30T09:48:20;9.80;99.90
9847;DHT22;4962;50.084;8.794;2023-01-30T09:51:12;9.90;99.90
9847;DHT22;4962;50.084;8.794;2023-01-30T09:53:52;9.90;99.90
9847;DHT22;4962;50.084;8.794;2023-01-30T09:56:22;10.00;99.90
9847;DHT22;4962;50.084;8.794;2023-01-30T09:58:53;10.00;99.90
9847;DHT22;4962;50.084;8.794;2023-01-30T10:01:26;10.00;99.90
9847;DHT22;4962;50.084;8.794;2023-01-30T10:04:07;10.10;99.90
9847;DHT22;4962;50.084;8.794;2023-01-30T10:06:43;10.00;99.90
9847;DHT22;4962;50.084;8.794;2023-01-30T10:09:15;10.00;99.90
9847;DHT22;4962;50.084;8.794;2023-01-30T10:11:56;10.00;99.90
9847;DHT22;4962;50.084;8.794;2023-01-30T10:14:42;10.00;99.90
9847;DHT22;4962;50.084;8.794;2023-01-30T10:17:30;10.00;99.90
9847;DHT22;4962;50.084;8.794;2023-01-30T10:20:24;10.00;99.90
9847;DHT22;4962;50.084;8.794;2023-01-30T10:23:03;10.00;99.90
9847;DHT22;4962;50.084;8.794;2023-01-30T10:25:41;10.10;99.90
9847;DHT22;4962;50.084;8.794;2023-01-30T10:28:20;10.10;99.90
9847;DHT22;4962;50.084;8.794;2023-01-30T10:30:50;10.20;99.90
9847;DHT22;4962;50.084;8.794;2023-01-30T10:33:31;10.20;99.90
9847;DHT22;4962;50.084;8.794;2023-01-30T10:36:09;10.30;99.90
9847;DHT22;4962;50.084;8.794;2023-01-30T10:38:40;10.30;99.90
9847;DHT22;4962;50.084;8.794;2023-01-30T10:41:16;10.30;99.90
9847;DHT22;4962;50.084;8.794;2023-01-30T10:43:49;10.30;99.90
9847;DHT22;4962;50.084;8.794;2023-01-30T10:46:36;10.30;99.90
9847;DHT22;4962;50.084;8.794;2023-01-30T10:49:09;10.30;99.90
9847;DHT22;4962;50.084;8.794;2023-01-30T10:51:45;10.30;99.90
9847;DHT22;4962;50.084;8.794;2023-01-30T10:54:19;10.40;99.90
9847;DHT22;4962;50.084;8.794;2023-01-30T10:56:53;10.40;99.90
9847;DHT22;4962;50.084;8.794;2023-01-30T10:59:26;10.40;99.90
9847;DHT22;4962;50.084;8.794;2023-01-30T11:02:15;10.40;99.90
9847;DHT22;4962;50.084;8.794;2023-01-30T11:04:49;10.40;99.90
9847;DHT22;4962;50.084;8.794;2023-01-30T11:07:18;10.50;99.90
9847;DHT22;4962;50.084;8.794;2023-01-30T11:09:46;10.50;99.90
9847;DHT22;4962;50.084;8.794;2023-01-30T11:12:14;10.60;99.90
9847;DHT22;4962;50.084;8.794;2023-01-30T11:14:58;10.60;99.90
9847;DHT22;4962;50.084;8.794;2023-01-30T11:17:32;10.60;99.90
9847;DHT22;4962;50.084;8.794;2023-01-30T11:20:03;10.60;99.90
9847;DHT22;4962;50.084;8.794;2023-01-30T11:22:34;10.60;99.90
9847;DHT22;4962;50.084;8.794;2023-01-30T11:25:05;10.60;99.90
9847;DHT22;4962;50.084;8.794;2023-01-30T11:27:33;10.60;99.90
9847;DHT22;4962;50.084;8.794;2023-01-30T11:30:11;10.60;99.90
9847;DHT22;4962;50.084;8.794;2023-01-30T11:32:41;10.60;99.90
9847;DHT22;4962;50.084;8.794;2023-01-30T11:35:27;10.60;99.90
9847;DHT22;4962;50.084;8.794;2023-01-30T11:38:11;10.60;99.90
9847;DHT22;4962;50.084;8.794;2023-01-30T11:40:38;10.70;99.90
9847;DHT22;4962;50.084;8.794;2023-01-30T11:43:11;10.70;99.90
9847;DHT22;4962;50.084;8.794;2023-01-30T11:45:41;10.70;99.90
9847;DHT22;4962;50.084;8.794;2023-01-30T11:48:16;10.80;99.90
9847;DHT22;4962;50.084;8.794;2023-01-30T11:50:45;10.80;99.90
9847;DHT22;4962;50.084;8.794;2023-01-30T11:53:20;10.70;99.90
9847;DHT22;4962;50.084;8.794;2023-01-30T11:55:48;10.70;99.90
9847;DHT22;4962;50.084;8.794;2023-01-30T11:58:15;10.80;99.90
9847;DHT22;4962;50.084;8.794;2023-01-30T12:00:49;10.80;99.90
9847;DHT22;4962;50.084;8.794;2023-01-30T12:03:18;10.80;99.90
9847;DHT22;4962;50.084;8.794;2023-01-30T12:05:49;10.80;99.90
9847;DHT22;4962;50.084;8.794;2023-01-30T12:08:26;10.90;99.90
9847;DHT22;4962;50.084;8.794;2023-01-30T12:10:58;10.90;99.90
9847;DHT22;4962;50.084;8.794;2023-01-30T12:13:30;10.90;99.90
9847;DHT22;4962;50.084;8.794;2023-01-30T12:16:16;11.00;99.90
9847;DHT22;4962;50.084;8.794;2023-01-30T12:18:50;11.00;99.90
9847;DHT22;4962;50.084;8.794;2023-01-30T12:21:27;11.00;99.90
9847;DHT22;4962;50.084;8.794;2023-01-30T12:24:04;11.00;99.90
9847;DHT22;4962;50.084;8.794;2023-01-30T12:26:41;11.10;99.90
9847;DHT22;4962;50.084;8.794;2023-01-30T12:29:20;11.20;99.90
9847;DHT22;4962;50.084;8.794;2023-01-30T12:32:04;11.20;99.90
9847;DHT22;4962;50.084;8.794;2023-01-30T12:34:31;11.20;99.90
9847;DHT22;4962;50.084;8.794;2023-01-30T12:37:07;11.20;99.90
9847;DHT22;4962;50.084;8.794;2023-01-30T12:39:49;11.20;99.90
9847;DHT22;4962;50.084;8.794;2023-01-30T12:42:32;11.10;99.90
9847;DHT22;4962;50.084;8.794;2023-01-30T12:45:18;11.10;99.90
9847;DHT22;4962;50.084;8.794;2023-01-30T12:50:59;11.10;99.90
9847;DHT22;4962;50.084;8.794;2023-01-30T12:53:35;11.10;99.90
9847;DHT22;4962;50.084;8.794;2023-01-30T12:56:20;11.20;99.90
9847;DHT22;4962;50.084;8.794;2023-01-30T12:58:56;11.20;99.90
9847;DHT22;4962;50.084;8.794;2023-01-30T13:01:27;11.20;99.90
9847;DHT22;4962;50.084;8.794;2023-01-30T13:04:03;11.20;99.90
9847;DHT22;4962;50.084;8.794;2023-01-30T13:06:48;11.20;99.90
9847;DHT22;4962;50.084;8.794;2023-01-30T13:12:27;11.20;99.90
9847;DHT22;4962;50.084;8.794;2023-01-30T13:15:02;11.20;99.90
9847;DHT22;4962;50.084;8.794;2023-01-30T13:17:42;11.10;99.90
9847;DHT22;4962;50.084;8.794;2023-01-30T13:20:19;11.20;99.90
9847;DHT22;4962;50.084;8.794;2023-01-30T13:22:51;11.20;99.90
9847;DHT22;4962;50.084;8.794;2023-01-30T13:25:28;11.20;99.90
9847;DHT22;4962;50.084;8.794;2023-01-30T13:28:02;11.20;99.90
9847;DHT22;4962;50.084;8.794;2023-01-30T13:30:33;11.30;99.90
9847;DHT22;4962;50.084;8.794;2023-01-30T13:33:05;11.30;99.90
9847;DHT22;4962;50.084;8.794;2023-01-30T13:35:41;11.30;99.90
9847;DHT22;4962;50.084;8.794;2023-01-30T13:38:15;11.30;99.90
9847;DHT22;4962;50.084;8.794;2023-01-30T13:40:44;11.40;99.90
9847;DHT22;4962;50.084;8.794;2023-01-30T13:43:17;11.40;99.90
9847;DHT22;4962;50.084;8.794;2023-01-30T13:45:49;11.40;99.90
9847;DHT22;4962;50.084;8.794;2023-01-30T13:48:26;11.40;99.90
9847;DHT22;4962;50.084;8.794;2023-01-30T13:51:07;11.40;99.90
9847;DHT22;4962;50.084;8.794;2023-01-30T13:53:42;11.30;99.90
9847;DHT22;4962;50.084;8.794;2023-01-30T13:56:18;11.30;99.90
9847;DHT22;4962;50.084;8.794;2023-01-30T13:58:51;11.20;99.90
9847;DHT22;4962;50.084;8.794;2023-01-30T14:04:45;11.10;99.90
9847;DHT22;4962;50.084;8.794;2023-01-30T14:07:15;11.10;99.90
9847;DHT22;4962;50.084;8.794;2023-01-30T14:12:50;11.20;99.90
9847;DHT22;4962;50.084;8.794;2023-01-30T14:15:22;11.30;99.90
9847;DHT22;4962;50.084;8.794;2023-01-30T14:17:57;11.30;99.90
9847;DHT22;4962;50.084;8.794;2023-01-30T14:20:26;11.40;99.90
9847;DHT22;4962;50.084;8.794;2023-01-30T14:22:55;11.40;99.90
9847;DHT22;4962;50.084;8.794;2023-01-30T14:25:45;11.40;99.90
9847;DHT22;4962;50.084;8.794;2023-01-30T14:28:46;11.40;99.90
9847;DHT22;4962;50.084;8.794;2023-01-30T14:31:49;11.40;99.90
9847;DHT22;4962;50.084;8.794;2023-01-30T14:34:48;11.40;99.90
9847;DHT22;4962;50.084;8.794;2023-01-30T14:37:44;11.40;99.90
9847;DHT22;4962;50.084;8.794;2023-01-30T14:40:45;11.40;99.90
9847;DHT22;4962;50.084;8.794;2023-01-30T14:43:47;11.40;99.90
9847;DHT22;4962;50.084;8.794;2023-01-30T14:46:40;11.40;99.90
9847;DHT22;4962;50.084;8.794;2023-01-30T14:49:24;11.40;99.90
9847;DHT22;4962;50.084;8.794;2023-01-30T14:51:51;11.40;99.90
9847;DHT22;4962;50.084;8.794;2023-01-30T14:54:33;11.40;99.90
9847;DHT22;4962;50.084;8.794;2023-01-30T14:57:04;11.40;99.90
9847;DHT22;4962;50.084;8.794;2023-01-30T14:59:47;11.30;99.90
9847;DHT22;4962;50.084;8.794;2023-01-30T15:02:20;11.30;99.90
9847;DHT22;4962;50.084;8.794;2023-01-30T15:04:56;11.20;99.90
9847;DHT22;4962;50.084;8.794;2023-01-30T15:07:26;11.20;99.90
9847;DHT22;4962;50.084;8.794;2023-01-30T15:09:59;11.10;99.90
9847;DHT22;4962;50.084;8.794;2023-01-30T15:12:44;11.10;99.90
9847;DHT22;4962;50.084;8.794;2023-01-30T15:15:22;11.10;99.90
9847;DHT22;4962;50.084;8.794;2023-01-30T15:21:13;11.10;99.90
9847;DHT22;4962;50.084;8.794;2023-01-30T15:26:59;11.00;99.90
9847;DHT22;4962;50.084;8.794;2023-01-30T15:29:57;10.90;99.90
9847;DHT22;4962;50.084;8.794;2023-01-30T15:32:42;10.90;99.90
9847;DHT22;4962;50.084;8.794;2023-01-30T15:35:22;10.90;99.90
9847;DHT22;4962;50.084;8.794;2023-01-30T15:37:51;10.80;99.90
9847;DHT22;4962;50.084;8.794;2023-01-30T15:40:29;10.80;99.90
9847;DHT22;4962;50.084;8.794;2023-01-30T15:43:10;10.80;99.90
9847;DHT22;4962;50.084;8.794;2023-01-30T15:45:47;10.80;99.90
9847;DHT22;4962;50.084;8.794;2023-01-30T15:48:44;10.80;99.90
9847;DHT22;4962;50.084;8.794;2023-01-30T15:51:15;10.90;99.90
9847;DHT22;4962;50.084;8.794;2023-01-30T15:53:45;11.00;99.90
9847;DHT22;4962;50.084;8.794;2023-01-30T15:56:18;10.90;99.90
9847;DHT22;4962;50.084;8.794;2023-01-30T15:58:48;10.90;99.90
9847;DHT22;4962;50.084;8.794;2023-01-30T16:01:18;10.90;99.90
9847;DHT22;4962;50.084;8.794;2023-01-30T16:03:46;10.90;99.90
9847;DHT22;4962;50.084;8.794;2023-01-30T16:06:22;10.90;99.90
9847;DHT22;4962;50.084;8.794;2023-01-30T16:08:57;10.90;99.90
9847;DHT22;4962;50.084;8.794;2023-01-30T16:11:33;10.90;99.90
9847;DHT22;4962;50.084;8.794;2023-01-30T16:14:01;10.90;99.90
9847;DHT22;4962;50.084;8.794;2023-01-30T16:16:28;10.90;99.90
9847;DHT22;4962;50.084;8.794;2023-01-30T16:18:57;10.90;99.90
9847;DHT22;4962;50.084;8.794;2023-01-30T16:21:29;10.90;99.90
9847;DHT22;4962;50.084;8.794;2023-01-30T16:24:01;10.90;99.90
9847;DHT22;4962;50.084;8.794;2023-01-30T16:26:30;10.90;99.90
9847;DHT22;4962;50.084;8.794;2023-01-30T16:29:02;10.90;99.90
9847;DHT22;4962;50.084;8.794;2023-01-30T16:31:31;10.90;99.90
9847;DHT22;4962;50.084;8.794;2023-01-30T16:33:58;11.00;99.90
9847;DHT22;4962;50.084;8.794;2023-01-30T16:36:31;10.90;99.90
9847;DHT22;4962;50.084;8.794;2023-01-30T16:38:58;10.90;99.90
9847;DHT22;4962;50.084;8.794;2023-01-30T16:41:31;11.00;99.90
9847;DHT22;4962;50.084;8.794;2023-01-30T16:44:16;10.90;99.90
9847;DHT22;4962;50.084;8.794;2023-01-30T16:47:04;11.00;99.90
9847;DHT22;4962;50.084;8.794;2023-01-30T16:49:41;11.00;99.90
9847;DHT22;4962;50.084;8.794;2023-01-30T16:52:18;11.00;99.90
9847;DHT22;4962;50.084;8.794;2023-01-30T16:54:48;10.90;99.90
9847;DHT22;4962;50.084;8.794;2023-01-30T16:57:32;10.90;99.90
9847;DHT22;4962;50.084;8.794;2023-01-30T17:00:04;10.90;99.90
9847;DHT22;4962;50.084;8.794;2023-01-30T17:02:34;10.80;99.90
9847;DHT22;4962;50.084;8.794;2023-01-30T17:05:18;10.80;99.90
9847;DHT22;4962;50.084;8.794;2023-01-30T17:07:46;10.80;99.90
9847;DHT22;4962;50.084;8.794;2023-01-30T17:10:52;10.80;99.90